Startpagina
METAR-TAF:

METAR-TAF

Vliegvelden :

Aeroporto Internacional de Brasília

Brasilia, Federaal District, Brazilië

breedte: 15-52S, lengte: 047-56W, hoogte: 1061 m

Actueel weer

Dit bericht is 39 minuten geleden gemaakt, om 03:00 UTC
Wind 6 kt uit het oosten
Temperatuur 25°C
Vochtigheid 65%
Druk 1019 hPa
Zicht 10 km of meer
Weinig wolken op 4000 ft
Gebroken wolken op 9000 ft

METAR: SBBR 190300Z 10006KT 9999 FEW040 BKN090 25/18 Q1019

Tijdstip: 00:39 (03:39 UTC)

Verwachting

Dit bericht is 5 uur en het 39 minuten geleden gemaakt, om 22:00 UTC
Verwachting geldig van 19 om 00 UTC tot 19 om 24 UTC
Wind 6 kt uit het oostnoordoosten
Zicht 10 km of meer
Verspreide wolken op 4000 ft
Wijzigt naar
van 19 om 14 UTC tot 19 om 16 UTC
Verspreide wolken op 4000 ft
Weinig wolken op 4500 ft, Stapelwolken.
Wijzigt naar
van 19 om 21 UTC tot 19 om 23 UTC
Weinig wolken op 3000 ft

TAF: SBBR 182200Z 1900/1924 07006KT 9999 SCT040 TN21/1906Z TX29/1917Z BECMG 1914/1916 SCT040 FEW045TCU BECMG 1921/1923 FEW030 RMK PAZ

Waarnemingen en weersverwachtingen van meer dan 4000 vliegvelden (METAR en TAF).

De beschikbare stations zijn de gele en rode punten op de kaart.

Ga met uw muis naar het station om de naam te zien.

Klik dan om waarnemingen en weersverwachtingen te zien.

kaart wijzigen: klik op de groene knoppen met een zwart kruis om in te zoomen, op de groene knop met een streepje om uit te zoomen of op de groene pijlen voor aangrenzende kaarten.


METAR-TAF: